createdAt,value
2018-09-08T00:04:29.188Z,97388.48
2018-09-08T00:09:23.997Z,97387.14
2018-09-08T00:14:18.882Z,97385.36
2018-09-08T00:19:18.710Z,97381.92
2018-09-08T00:24:18.744Z,97380.17
2018-09-08T00:29:17.657Z,97382.73
2018-09-08T00:34:12.599Z,97387.75
2018-09-08T00:39:11.047Z,97397.27
2018-09-08T00:44:05.967Z,97401.59
2018-09-08T00:49:00.790Z,97399.97
2018-09-08T00:53:55.696Z,97398.59
2018-09-08T00:58:55.611Z,97392.84
2018-09-08T01:03:50.649Z,97405.16
2018-09-08T01:08:45.479Z,97415.59
2018-09-08T01:13:40.322Z,97417.25
2018-09-08T01:18:36.998Z,97422.45
2018-09-08T01:23:31.891Z,97425.02
2018-09-08T01:28:26.769Z,97428.59
2018-09-08T01:33:21.669Z,97437.28
2018-09-08T01:38:16.638Z,97435.89
2018-09-08T01:43:11.513Z,97434.42
2018-09-08T01:48:06.718Z,97429.82
2018-09-08T01:53:01.632Z,97418.45
2018-09-08T01:57:56.505Z,97425.42
2018-09-08T02:02:51.378Z,97424.05
2018-09-08T02:07:46.285Z,97427.61
2018-09-08T02:12:41.198Z,97436.20
2018-09-08T02:17:36.108Z,97437.91
2018-09-08T02:22:31.018Z,97436.83
2018-09-08T02:27:25.911Z,97435.99
2018-09-08T02:32:20.852Z,97430.51
2018-09-08T02:37:15.721Z,97434.59
2018-09-08T02:42:10.660Z,97437.52
2018-09-08T02:47:05.842Z,97445.77
2018-09-08T02:51:58.774Z,97445.77
2018-09-08T02:56:51.672Z,97439.34
2018-09-08T03:01:44.655Z,97445.84
2018-09-08T03:06:37.590Z,97444.30
2018-09-08T03:11:30.501Z,97454.05
2018-09-08T03:16:23.409Z,97456.32
2018-09-08T03:21:16.342Z,97454.95
2018-09-08T03:26:09.246Z,97453.82
2018-09-08T03:31:02.214Z,97462.48
2018-09-08T03:35:55.150Z,97457.19
2018-09-08T03:40:48.070Z,97458.09
2018-09-08T03:45:40.981Z,97451.81
2018-09-08T03:50:33.910Z,97451.73
2018-09-08T03:55:26.817Z,97455.58
2018-09-08T04:00:19.743Z,97456.89
2018-09-08T04:05:14.634Z,97451.91
2018-09-08T04:10:09.538Z,97453.05
2018-09-08T04:15:04.564Z,97459.95
2018-09-08T04:19:59.439Z,97460.44
2018-09-08T04:24:54.341Z,97461.28
2018-09-08T04:29:49.242Z,97466.56
2018-09-08T04:34:44.085Z,97460.35
2018-09-08T04:39:40.604Z,97467.31
2018-09-08T04:44:35.440Z,97473.97
2018-09-08T04:49:30.314Z,97468.19
2018-09-08T04:54:25.172Z,97467.36
2018-09-08T04:59:20.034Z,97468.53
2018-09-08T05:04:14.913Z,97464.50
2018-09-08T05:09:12.120Z,97464.48
2018-09-08T05:14:07.058Z,97470.50
2018-09-08T05:19:01.934Z,97465.77
2018-09-08T05:23:56.777Z,97467.20
2018-09-08T05:28:51.673Z,97471.44
2018-09-08T05:33:46.841Z,97474.19
2018-09-08T05:38:41.913Z,97477.84
2018-09-08T05:43:36.771Z,97482.95
2018-09-08T05:48:31.609Z,97493.01
2018-09-08T05:53:26.501Z,97486.98
2018-09-08T05:58:21.403Z,97491.23
2018-09-08T06:03:16.291Z,97491.48
2018-09-08T06:08:11.222Z,97502.05
2018-09-08T06:13:07.160Z,97508.11
2018-09-08T06:18:02.012Z,97513.23
2018-09-08T06:22:56.929Z,97513.41
2018-09-08T06:27:51.801Z,97513.80
2018-09-08T06:32:46.735Z,97511.64
2018-09-08T06:37:41.579Z,97511.13
2018-09-08T06:42:36.507Z,97515.59
2018-09-08T06:47:31.394Z,97507.72
2018-09-08T06:52:26.265Z,97507.98
2018-09-08T06:57:21.240Z,97503.04
2018-09-08T07:02:16.331Z,97505.47
2018-09-08T07:07:12.940Z,97508.89
2018-09-08T07:12:07.891Z,97514.05
2018-09-08T07:17:02.997Z,97514.97
2018-09-08T07:21:57.913Z,97515.28
2018-09-08T07:26:52.921Z,97521.16
2018-09-08T07:31:47.941Z,97518.41
2018-09-08T07:36:42.884Z,97519.86
2018-09-08T07:41:37.761Z,97521.66
2018-09-08T07:46:32.717Z,97523.90
2018-09-08T07:51:27.605Z,97524.05
2018-09-08T07:56:22.514Z,97522.07
2018-09-08T08:01:17.474Z,97515.70
2018-09-08T08:06:12.426Z,97517.87
2018-09-08T08:11:07.627Z,97528.05
2018-09-08T08:16:02.525Z,97526.38
2018-09-08T08:20:57.477Z,97530.59
2018-09-08T08:25:52.406Z,97530.09
2018-09-08T08:30:47.306Z,97526.78
2018-09-08T08:35:42.209Z,97527.62
2018-09-08T08:40:43.774Z,97533.09
2018-09-08T08:45:38.570Z,97524.75
2018-09-08T08:52:52.602Z,97527.47
2018-09-08T08:57:47.409Z,97532.67
2018-09-08T09:02:42.215Z,97527.00
2018-09-08T09:07:37.110Z,97522.58
2018-09-08T09:12:31.843Z,97520.15
2018-09-08T09:17:26.578Z,97522.86
2018-09-08T09:22:37.820Z,97523.45
2018-09-08T09:27:34.973Z,97522.36
2018-09-08T09:32:29.762Z,97519.13
2018-09-08T09:37:24.643Z,97518.39
2018-09-08T09:42:19.448Z,97507.47
2018-09-08T09:47:14.281Z,97501.75
2018-09-08T09:52:09.086Z,97502.14
2018-09-08T09:57:03.937Z,97495.00
2018-09-08T10:02:04.528Z,97498.52
2018-09-08T10:06:59.374Z,97485.09
2018-09-08T10:11:54.254Z,97489.09
2018-09-08T10:16:49.041Z,97488.73
2018-09-08T10:21:44.557Z,97478.03
2018-09-08T10:26:39.435Z,97475.12
2018-09-08T10:31:34.238Z,97469.55
2018-09-08T10:36:29.058Z,97471.06
2018-09-08T10:41:24.458Z,97473.04
2018-09-08T10:46:19.293Z,97469.86
2018-09-08T10:53:31.840Z,97466.98
2018-09-08T10:58:26.621Z,97456.75
2018-09-08T11:03:21.417Z,97453.67
2018-09-08T11:08:16.304Z,97449.84
2018-09-08T11:13:11.156Z,97448.45
2018-09-08T11:18:06.142Z,97447.11
2018-09-08T11:23:01.058Z,97442.94
2018-09-08T11:27:56.045Z,97442.95
2018-09-08T11:32:50.956Z,97439.17
2018-09-08T11:37:45.917Z,97427.65
2018-09-08T11:42:40.789Z,97417.98
2018-09-08T11:47:35.698Z,97423.81
2018-09-08T11:52:30.524Z,97413.56
2018-09-08T11:57:25.478Z,97411.18
2018-09-08T12:02:20.458Z,97410.55
2018-09-08T12:07:15.360Z,97400.22
2018-09-08T12:12:10.261Z,97404.42
2018-09-08T12:17:05.177Z,97403.45
2018-09-08T12:22:00.112Z,97398.09
2018-09-08T12:26:54.973Z,97391.97
2018-09-08T12:31:49.909Z,97392.06
2018-09-08T12:36:44.905Z,97383.55
2018-09-08T12:41:39.778Z,97382.67
2018-09-08T12:46:35.517Z,97375.29
2018-09-08T12:51:30.427Z,97376.32
2018-09-08T12:56:25.285Z,97379.95
2018-09-08T13:01:20.068Z,97372.31
2018-09-08T13:06:14.880Z,97371.75
2018-09-08T13:11:09.719Z,97372.39
2018-09-08T13:16:04.713Z,97365.30
2018-09-08T13:20:59.634Z,97358.06
2018-09-08T13:25:54.533Z,97350.98
2018-09-08T13:30:49.444Z,97348.54
2018-09-08T13:35:44.370Z,97342.72
2018-09-08T13:40:39.273Z,97333.47
2018-09-08T13:45:34.186Z,97334.80
2018-09-08T13:50:29.433Z,97327.88
2018-09-08T13:55:24.382Z,97327.05
2018-09-08T14:00:19.219Z,97321.39
2018-09-08T14:05:14.031Z,97315.81
2018-09-08T14:10:08.845Z,97314.83
2018-09-08T14:15:03.618Z,97315.61
2018-09-08T14:19:58.426Z,97317.46
2018-09-08T14:24:53.210Z,97320.56
2018-09-08T14:29:47.998Z,97317.42
2018-09-08T14:34:42.797Z,97323.28
2018-09-08T14:39:37.637Z,97326.00
2018-09-08T14:44:32.874Z,97325.56
2018-09-08T14:49:27.736Z,97326.23
2018-09-08T14:54:22.649Z,97319.58
2018-09-08T14:59:17.538Z,97320.64
2018-09-08T15:04:12.506Z,97318.44
2018-09-08T15:09:08.464Z,97320.73
2018-09-08T15:14:03.406Z,97320.84
2018-09-08T15:18:58.325Z,97321.66
2018-09-08T15:23:53.495Z,97321.23
2018-09-08T15:28:48.393Z,97322.70
2018-09-08T15:33:43.277Z,97323.13
2018-09-08T15:38:38.149Z,97328.75
2018-09-08T15:43:33.208Z,97329.81
2018-09-08T15:48:28.088Z,97335.98
2018-09-08T15:53:22.968Z,97336.36
2018-09-08T15:58:18.060Z,97338.12
2018-09-08T16:03:12.886Z,97344.19
2018-09-08T16:08:07.817Z,97343.55
2018-09-08T16:13:02.814Z,97347.87
2018-09-08T16:17:57.812Z,97346.33
2018-09-08T16:22:52.720Z,97348.23
2018-09-08T16:27:47.685Z,97350.20
2018-09-08T16:32:42.578Z,97344.73
2018-09-08T16:37:37.486Z,97341.19
2018-09-08T16:42:32.386Z,97339.38
2018-09-08T16:47:27.294Z,97342.74
2018-09-08T16:52:22.158Z,97345.60
2018-09-08T16:57:17.042Z,97347.81
2018-09-08T17:02:11.897Z,97349.49
2018-09-08T17:07:06.946Z,97346.62
2018-09-08T17:12:01.881Z,97348.22
2018-09-08T17:16:56.754Z,97355.51
2018-09-08T17:21:51.777Z,97349.77
2018-09-08T17:26:46.677Z,97352.12
2018-09-08T17:31:41.559Z,97365.31
2018-09-08T17:36:36.449Z,97356.70
2018-09-08T17:41:31.353Z,97353.23
2018-09-08T17:46:26.214Z,97363.38
2018-09-08T17:51:21.115Z,97366.55
2018-09-08T17:56:16.047Z,97369.67
2018-09-08T18:01:10.996Z,97370.84
2018-09-08T18:06:05.961Z,97367.48
2018-09-08T18:11:00.791Z,97376.14
2018-09-08T18:15:55.772Z,97372.25
2018-09-08T18:20:50.774Z,97381.73
2018-09-08T18:25:48.824Z,97381.80
2018-09-08T18:30:43.809Z,97385.90
2018-09-08T18:35:38.789Z,97387.87
2018-09-08T18:40:33.833Z,97389.74
2018-09-08T18:45:28.785Z,97390.80
2018-09-08T18:50:23.780Z,97395.93
2018-09-08T18:55:18.694Z,97400.91
2018-09-08T19:00:13.665Z,97406.86
2018-09-08T19:05:08.738Z,97400.26
2018-09-08T19:10:07.401Z,97399.00
2018-09-08T19:15:07.425Z,97402.10
2018-09-08T19:20:08.048Z,97403.08
2018-09-08T19:25:02.902Z,97403.81
2018-09-08T19:30:03.620Z,97414.42
2018-09-08T19:35:04.913Z,97408.20
2018-09-08T19:39:59.949Z,97417.63
2018-09-08T19:44:54.953Z,97406.50
2018-09-08T19:49:49.902Z,97417.09
2018-09-08T19:54:44.789Z,97410.77
2018-09-08T19:59:39.657Z,97418.98
2018-09-08T20:04:34.537Z,97418.98
2018-09-08T20:09:29.480Z,97429.94
2018-09-08T20:14:24.387Z,97438.22
2018-09-08T20:19:19.367Z,97435.72
2018-09-08T20:24:14.406Z,97439.48
2018-09-08T20:29:09.453Z,97447.38
2018-09-08T20:34:04.449Z,97446.25
2018-09-08T20:38:59.457Z,97445.34
2018-09-08T20:43:54.497Z,97447.78
2018-09-08T20:48:49.706Z,97448.81
2018-09-08T20:53:44.771Z,97449.48
2018-09-08T20:58:39.856Z,97446.95
2018-09-08T21:03:34.758Z,97449.95
2018-09-08T21:08:33.608Z,97443.42
2018-09-08T21:13:28.647Z,97447.33
2018-09-08T21:18:23.766Z,97452.78
2018-09-08T21:23:18.884Z,97454.27
2018-09-08T21:28:14.061Z,97455.53
2018-09-08T21:33:09.077Z,97455.34
2018-09-08T21:38:04.131Z,97451.28
2018-09-08T21:42:59.238Z,97450.90
2018-09-08T21:47:54.315Z,97459.26
2018-09-08T21:52:49.437Z,97463.23
2018-09-08T21:57:44.505Z,97467.69
2018-09-08T22:02:39.578Z,97474.30
2018-09-08T22:07:34.651Z,97477.77
2018-09-08T22:12:29.811Z,97477.20
2018-09-08T22:17:24.986Z,97482.53
2018-09-08T22:22:20.094Z,97478.48
2018-09-08T22:27:14.985Z,97477.50
2018-09-08T22:32:09.917Z,97481.90
2018-09-08T22:37:04.880Z,97479.05
2018-09-08T22:41:59.795Z,97473.94
2018-09-08T22:46:54.675Z,97471.57
2018-09-08T22:51:49.554Z,97470.05
2018-09-08T22:56:44.528Z,97472.02
2018-09-08T23:01:39.435Z,97470.19
2018-09-08T23:06:34.382Z,97467.07
2018-09-08T23:11:29.285Z,97472.45
2018-09-08T23:16:24.140Z,97477.96
2018-09-08T23:21:18.991Z,97478.03
2018-09-08T23:26:13.840Z,97466.06
2018-09-08T23:31:08.730Z,97475.20
2018-09-08T23:36:03.626Z,97472.92
2018-09-08T23:40:58.491Z,97478.34
2018-09-08T23:45:53.373Z,97479.12
2018-09-08T23:50:48.315Z,97485.45
2018-09-08T23:55:43.192Z,97481.16
